createdAt,value
2018-11-25T00:01:03.156Z,17.47
2018-11-25T00:06:06.719Z,17.30
2018-11-25T00:11:10.425Z,17.30
2018-11-25T00:16:14.042Z,16.80
2018-11-25T00:21:19.722Z,16.63
2018-11-25T00:26:23.970Z,17.07
2018-11-25T00:31:27.860Z,17.93
2018-11-25T00:36:31.493Z,15.70
2018-11-25T00:41:35.105Z,17.60
2018-11-25T00:46:38.717Z,18.50
2018-11-25T00:51:42.376Z,20.10
2018-11-25T00:56:45.961Z,20.13
2018-11-25T01:01:49.550Z,17.70
2018-11-25T01:06:53.268Z,16.80
2018-11-25T01:11:56.809Z,17.90
2018-11-25T01:17:00.433Z,16.30
2018-11-25T01:22:04.054Z,15.33
2018-11-25T01:27:07.603Z,13.03
2018-11-25T01:32:11.193Z,13.50
2018-11-25T01:37:15.053Z,15.70
2018-11-25T01:42:18.621Z,16.27
2018-11-25T01:47:22.247Z,15.07
2018-11-25T01:52:25.810Z,16.47
2018-11-25T01:57:29.361Z,16.77
2018-11-25T02:02:33.436Z,15.03
2018-11-25T02:07:37.037Z,16.23
2018-11-25T02:12:41.463Z,16.33
2018-11-25T02:17:45.061Z,16.77
2018-11-25T02:22:49.800Z,16.77
2018-11-25T02:27:53.407Z,16.33
2018-11-25T02:32:56.963Z,16.37
2018-11-25T02:38:00.569Z,15.00
2018-11-25T02:48:32.786Z,15.87
2018-11-25T02:53:36.348Z,15.03
2018-11-25T02:58:40.008Z,13.70
2018-11-25T03:03:43.585Z,13.37
2018-11-25T03:08:47.272Z,13.90
2018-11-25T03:13:51.252Z,12.60
2018-11-25T03:18:55.310Z,13.13
2018-11-25T03:23:58.880Z,15.00
2018-11-25T03:29:02.727Z,14.50
2018-11-25T03:34:06.902Z,14.50
2018-11-25T03:39:10.450Z,15.30
2018-11-25T03:44:14.012Z,14.20
2018-11-25T03:49:18.449Z,15.07
2018-11-25T03:54:21.999Z,14.37
2018-11-25T03:59:26.243Z,15.70
2018-11-25T04:04:30.336Z,15.93
2018-11-25T04:09:33.892Z,16.67
2018-11-25T04:14:37.496Z,14.93
2018-11-25T04:19:41.902Z,15.30
2018-11-25T04:24:45.465Z,14.27
2018-11-25T04:29:49.793Z,14.67
2018-11-25T04:34:53.685Z,15.23
2018-11-25T04:39:57.292Z,15.37
2018-11-25T04:45:02.483Z,14.70
2018-11-25T04:50:10.256Z,14.87
2018-11-25T04:55:13.973Z,14.60
2018-11-25T05:00:17.577Z,15.87
2018-11-25T05:05:21.126Z,15.70
2018-11-25T05:10:24.795Z,16.57
2018-11-25T05:15:28.640Z,16.10
2018-11-25T05:20:32.452Z,15.27
2018-11-25T05:25:36.202Z,15.63
2018-11-25T05:30:40.073Z,15.40
2018-11-25T05:35:43.902Z,15.43
2018-11-25T05:40:47.461Z,14.07
2018-11-25T05:45:51.077Z,14.83
2018-11-25T05:50:58.347Z,16.60
2018-11-25T05:56:01.913Z,15.80
2018-11-25T06:01:05.578Z,15.83
2018-11-25T06:06:09.120Z,16.10
2018-11-25T06:11:13.197Z,15.90
2018-11-25T06:16:16.764Z,16.77
2018-11-25T06:21:20.355Z,16.50
2018-11-25T06:26:23.980Z,15.40
2018-11-25T06:31:28.674Z,16.27
2018-11-25T06:36:32.248Z,18.03
2018-11-25T06:41:36.533Z,17.43
2018-11-25T06:46:41.372Z,15.77
2018-11-25T06:51:45.512Z,16.00
2018-11-25T06:56:49.233Z,15.00
2018-11-25T07:01:52.808Z,15.63
2018-11-25T07:06:57.043Z,16.20
2018-11-25T07:12:00.673Z,16.13
2018-11-25T07:17:04.281Z,15.33
2018-11-25T07:22:07.845Z,17.83
2018-11-25T07:27:11.430Z,18.03
2018-11-25T07:32:15.071Z,16.53
2018-11-25T07:37:18.664Z,16.83
2018-11-25T07:42:22.546Z,17.33
2018-11-25T07:47:26.213Z,16.30
2018-11-25T07:52:29.795Z,18.50
2018-11-25T07:57:33.429Z,17.43
2018-11-25T08:02:41.612Z,17.30
2018-11-25T08:07:40.657Z,16.60
2018-11-25T08:12:45.012Z,16.00
2018-11-25T08:17:48.673Z,17.10
2018-11-25T08:22:52.274Z,16.30
2018-11-25T08:27:58.066Z,14.63
2018-11-25T08:33:01.616Z,15.10
2018-11-25T08:38:05.244Z,15.23
2018-11-25T08:43:08.857Z,14.43
2018-11-25T08:48:12.838Z,13.93
2018-11-25T08:53:16.406Z,13.80
2018-11-25T08:58:20.050Z,14.70
2018-11-25T09:03:23.594Z,13.67
2018-11-25T09:08:27.184Z,14.20
2018-11-25T09:13:30.989Z,13.63
2018-11-25T09:18:34.583Z,12.20
2018-11-25T09:23:48.561Z,13.03
2018-11-25T09:28:52.360Z,12.77
2018-11-25T09:33:56.780Z,13.27
2018-11-25T09:38:59.437Z,11.50
2018-11-25T09:44:03.236Z,12.80
2018-11-25T09:49:06.924Z,11.97
2018-11-25T09:54:10.512Z,12.50
2018-11-25T09:59:14.171Z,12.17
2018-11-25T10:04:18.012Z,11.93
2018-11-25T10:09:21.788Z,11.60
2018-11-25T10:14:25.946Z,12.23
2018-11-25T10:19:29.757Z,11.20
2018-11-25T10:24:33.336Z,10.87
2018-11-25T10:29:37.013Z,10.67
2018-11-25T10:34:40.998Z,11.00
2018-11-25T10:39:44.641Z,10.67
2018-11-25T10:44:48.324Z,11.33
2018-11-25T10:49:52.796Z,10.77
2018-11-25T10:54:56.467Z,10.17
2018-11-25T11:00:00.183Z,8.40
2018-11-25T11:05:05.456Z,8.87
2018-11-25T11:10:10.304Z,9.00
2018-11-25T11:15:13.922Z,8.10
2018-11-25T11:20:17.766Z,8.27
2018-11-25T11:25:21.393Z,7.87
2018-11-25T11:30:25.147Z,7.77
2018-11-25T11:35:29.112Z,8.13
2018-11-25T11:40:32.818Z,8.27
2018-11-25T11:45:37.286Z,9.23
2018-11-25T11:50:40.905Z,8.80
2018-11-25T11:55:45.772Z,8.60
2018-11-25T12:00:49.612Z,8.90
2018-11-25T12:06:06.944Z,9.30
2018-11-25T12:11:10.498Z,10.03
2018-11-25T12:16:14.279Z,10.00
2018-11-25T12:21:18.073Z,9.53
2018-11-25T12:26:21.667Z,10.90
2018-11-25T12:31:25.249Z,10.10
2018-11-25T12:36:28.936Z,9.43
2018-11-25T12:41:32.559Z,9.33
2018-11-25T12:46:36.176Z,10.80
2018-11-25T12:51:41.293Z,9.50
2018-11-25T12:56:51.700Z,10.13
2018-11-25T13:01:48.932Z,10.17
2018-11-25T13:06:52.548Z,10.00
2018-11-25T13:11:56.109Z,10.67
2018-11-25T13:16:59.758Z,9.50
2018-11-25T13:22:03.406Z,10.23
2018-11-25T13:27:07.003Z,10.03
2018-11-25T13:32:10.635Z,10.03
2018-11-25T13:37:14.516Z,10.07
2018-11-25T13:42:18.123Z,9.97
2018-11-25T13:47:21.801Z,9.30
2018-11-25T13:52:25.366Z,10.00
2018-11-25T13:57:28.942Z,9.27
2018-11-25T14:02:32.536Z,15.40
2018-11-25T14:07:36.408Z,6.40
2018-11-25T14:12:39.988Z,6.10
2018-11-25T14:17:43.669Z,6.20
2018-11-25T14:22:53.290Z,5.97
2018-11-25T14:27:59.073Z,7.10
2018-11-25T14:33:02.656Z,5.13
2018-11-25T14:38:06.960Z,6.00
2018-11-25T14:43:10.885Z,4.73
2018-11-25T14:48:14.758Z,5.77
2018-11-25T14:53:18.559Z,6.33
2018-11-25T14:58:22.142Z,6.13
2018-11-25T15:03:25.757Z,6.10
2018-11-25T15:08:29.548Z,9.30
2018-11-25T15:13:33.128Z,6.33
2018-11-25T15:18:37.084Z,5.60
2018-11-25T15:23:40.780Z,6.73
2018-11-25T15:28:44.689Z,6.37
2018-11-25T15:33:48.611Z,5.80
2018-11-25T15:38:52.306Z,6.27
2018-11-25T15:43:56.020Z,6.90
2018-11-25T15:49:00.031Z,6.23
2018-11-25T15:54:03.963Z,6.77
2018-11-25T15:59:07.956Z,7.40
2018-11-25T16:04:11.926Z,6.67
2018-11-25T16:09:15.686Z,8.97
2018-11-25T16:14:19.496Z,7.40
2018-11-25T16:19:23.496Z,7.77
2018-11-25T16:24:27.205Z,7.77
2018-11-25T16:29:30.972Z,7.20
2018-11-25T16:34:34.842Z,7.67
2018-11-25T16:39:38.812Z,7.27
2018-11-25T16:44:46.522Z,7.20
2018-11-25T16:49:50.543Z,7.33
2018-11-25T16:54:54.170Z,7.77
2018-11-25T17:00:01.397Z,7.70
2018-11-25T17:05:18.242Z,9.63
2018-11-25T17:10:21.881Z,8.40
2018-11-25T17:15:27.297Z,7.33
2018-11-25T17:20:30.972Z,7.83
2018-11-25T17:25:34.624Z,7.30
2018-11-25T17:30:38.337Z,7.57
2018-11-25T17:35:42.089Z,6.90
2018-11-25T17:40:45.733Z,7.67
2018-11-25T17:45:49.853Z,7.30
2018-11-25T17:50:53.537Z,7.50
2018-11-25T17:55:57.172Z,7.43
2018-11-25T18:01:04.823Z,6.77
2018-11-25T18:06:08.459Z,7.70
2018-11-25T18:11:12.065Z,7.03
2018-11-25T18:16:15.698Z,7.00
2018-11-25T18:21:23.213Z,7.13
2018-11-25T18:26:27.076Z,6.90
2018-11-25T18:31:30.665Z,7.30
2018-11-25T18:36:34.259Z,6.97
2018-11-25T18:41:37.943Z,7.30
2018-11-25T18:46:46.572Z,6.50
2018-11-25T18:51:45.434Z,6.73
2018-11-25T18:56:49.284Z,6.60
2018-11-25T19:01:57.891Z,6.13
2018-11-25T19:07:01.501Z,7.10
2018-11-25T19:12:05.461Z,6.00
2018-11-25T19:17:09.050Z,6.87
2018-11-25T19:22:12.636Z,6.20
2018-11-25T19:27:16.762Z,7.20
2018-11-25T19:32:20.531Z,7.50
2018-11-25T19:37:24.354Z,7.53
2018-11-25T19:42:28.094Z,8.10
2018-11-25T19:47:31.952Z,8.03
2018-11-25T19:52:36.643Z,7.33
2018-11-25T19:57:40.828Z,7.20
2018-11-25T20:02:44.694Z,6.90
2018-11-25T20:07:48.742Z,7.57
2018-11-25T20:12:55.677Z,7.70
2018-11-25T20:18:00.333Z,7.53
2018-11-25T20:23:09.252Z,7.53
2018-11-25T20:28:13.423Z,7.83
2018-11-25T20:33:22.652Z,7.47
2018-11-25T20:38:31.775Z,8.70
2018-11-25T20:43:35.456Z,7.57
2018-11-25T20:48:39.345Z,7.50
2018-11-25T20:53:48.255Z,8.10
2018-11-25T20:58:52.606Z,6.80
2018-11-25T21:03:56.203Z,7.50
2018-11-25T21:09:00.426Z,7.30
2018-11-25T21:14:04.027Z,6.97
2018-11-25T21:19:07.577Z,7.20
2018-11-25T21:24:11.201Z,7.03
2018-11-25T21:29:14.776Z,7.90
2018-11-25T21:34:18.478Z,7.30
2018-11-25T21:39:22.112Z,7.20
2018-11-25T21:44:25.697Z,7.10
2018-11-25T21:49:29.801Z,9.90
2018-11-25T21:54:33.366Z,7.47
2018-11-25T21:59:37.210Z,7.37
2018-11-25T22:04:40.824Z,7.40
2018-11-25T22:09:44.560Z,7.07
2018-11-25T22:14:48.139Z,6.63
2018-11-25T22:19:51.973Z,7.20
2018-11-25T22:24:55.582Z,7.40
2018-11-25T22:30:04.101Z,8.30
2018-11-25T22:35:10.551Z,6.97
2018-11-25T22:40:15.307Z,7.20
2018-11-25T22:45:21.408Z,7.17
2018-11-25T22:50:27.640Z,7.90
2018-11-25T22:55:28.677Z,8.50
2018-11-25T23:00:34.873Z,8.20
2018-11-25T23:05:49.685Z,7.50
2018-11-25T23:10:53.592Z,7.30
2018-11-25T23:15:57.429Z,7.70
2018-11-25T23:21:01.541Z,8.17
2018-11-25T23:26:05.379Z,7.37
2018-11-25T23:31:09.677Z,6.40
2018-11-25T23:36:15.643Z,7.57
2018-11-25T23:41:19.466Z,7.30
2018-11-25T23:46:23.071Z,8.27
2018-11-25T23:51:26.910Z,8.20
2018-11-25T23:56:31.328Z,9.13
